createdAt,value
2018-07-13T00:01:28.040Z,18.82
2018-07-13T00:03:03.659Z,18.84
2018-07-13T00:04:39.288Z,18.87
2018-07-13T00:06:14.888Z,18.72
2018-07-13T00:07:50.470Z,18.76
2018-07-13T00:09:26.070Z,18.75
2018-07-13T00:11:02.055Z,18.75
2018-07-13T00:12:37.809Z,18.71
2018-07-13T00:14:18.434Z,18.74
2018-07-13T00:16:01.248Z,18.68
2018-07-13T00:17:36.882Z,18.72
2018-07-13T00:19:12.875Z,18.71
2018-07-13T00:20:49.093Z,18.70
2018-07-13T00:22:24.673Z,18.69
2018-07-13T00:24:00.279Z,18.72
2018-07-13T00:25:35.899Z,18.71
2018-07-13T00:27:11.755Z,18.71
2018-07-13T00:28:47.354Z,18.67
2018-07-13T00:30:22.963Z,18.62
2018-07-13T00:31:58.564Z,18.57
2018-07-13T00:33:34.221Z,18.57
2018-07-13T00:35:10.132Z,18.53
2018-07-13T00:36:45.769Z,18.43
2018-07-13T00:38:21.340Z,18.51
2018-07-13T00:39:56.988Z,18.50
2018-07-13T00:41:32.579Z,18.46
2018-07-13T00:43:08.179Z,18.38
2018-07-13T00:44:43.756Z,18.32
2018-07-13T00:46:19.493Z,18.20
2018-07-13T00:47:55.140Z,18.10
2018-07-13T00:49:30.752Z,17.97
2018-07-13T00:51:06.364Z,17.90
2018-07-13T00:52:41.953Z,17.91
2018-07-13T00:54:17.824Z,17.88
2018-07-13T00:55:53.467Z,17.87
2018-07-13T00:57:29.088Z,17.82
2018-07-13T00:59:04.761Z,17.84
2018-07-13T01:00:40.728Z,17.80
2018-07-13T01:02:16.345Z,17.78
2018-07-13T01:03:51.990Z,17.71
2018-07-13T01:05:28.039Z,17.69
2018-07-13T01:07:03.693Z,17.68
2018-07-13T01:08:39.316Z,17.68
2018-07-13T01:10:14.944Z,17.63
2018-07-13T01:11:50.620Z,17.59
2018-07-13T01:13:26.248Z,17.52
2018-07-13T01:15:01.813Z,17.43
2018-07-13T01:16:38.039Z,17.36
2018-07-13T01:18:13.975Z,17.34
2018-07-13T01:19:49.605Z,17.30
2018-07-13T01:21:25.201Z,17.24
2018-07-13T01:23:00.806Z,17.21
2018-07-13T01:24:36.419Z,17.26
2018-07-13T01:26:12.012Z,17.22
2018-07-13T01:27:47.909Z,17.23
2018-07-13T01:29:23.518Z,17.23
2018-07-13T01:30:59.094Z,17.21
2018-07-13T01:32:34.738Z,17.18
2018-07-13T01:34:10.374Z,17.16
2018-07-13T01:35:46.022Z,17.11
2018-07-13T01:37:21.602Z,17.07
2018-07-13T01:38:57.193Z,17.00
2018-07-13T01:40:32.810Z,16.95
2018-07-13T01:42:08.443Z,16.92
2018-07-13T01:43:44.039Z,16.90
2018-07-13T01:45:20.070Z,16.87
2018-07-13T01:46:55.689Z,16.89
2018-07-13T01:48:31.280Z,16.85
2018-07-13T01:50:07.193Z,16.90
2018-07-13T01:51:42.799Z,16.94
2018-07-13T01:53:18.424Z,16.90
2018-07-13T01:54:54.166Z,16.85
2018-07-13T01:56:30.037Z,16.77
2018-07-13T01:58:05.723Z,16.79
2018-07-13T01:59:41.321Z,16.73
2018-07-13T02:01:16.929Z,16.73
2018-07-13T02:02:52.562Z,16.70
2018-07-13T02:04:28.148Z,16.69
2018-07-13T02:06:04.027Z,16.68
2018-07-13T02:07:39.673Z,16.66
2018-07-13T02:09:15.252Z,16.67
2018-07-13T02:10:50.872Z,16.57
2018-07-13T02:12:26.492Z,16.59
2018-07-13T02:14:02.091Z,16.58
2018-07-13T02:15:37.681Z,16.58
2018-07-13T02:17:13.308Z,16.55
2018-07-13T02:18:48.917Z,16.54
2018-07-13T02:20:24.509Z,16.55
2018-07-13T02:22:00.107Z,16.53
2018-07-13T02:23:35.764Z,16.52
2018-07-13T02:25:11.421Z,16.50
2018-07-13T02:26:47.055Z,16.51
2018-07-13T02:28:22.663Z,16.45
2018-07-13T02:29:58.621Z,16.47
2018-07-13T02:31:38.189Z,16.45
2018-07-13T02:33:13.787Z,16.40
2018-07-13T02:34:49.435Z,16.20
2018-07-13T02:36:25.010Z,16.10
2018-07-13T02:38:00.614Z,16.02
2018-07-13T02:39:36.285Z,15.94
2018-07-13T02:41:11.987Z,15.98
2018-07-13T02:42:47.536Z,16.03
2018-07-13T02:44:23.179Z,16.08
2018-07-13T02:45:58.795Z,16.06
2018-07-13T02:47:34.385Z,16.10
2018-07-13T02:49:10.048Z,16.16
2018-07-13T02:50:45.636Z,16.16
2018-07-13T02:52:21.229Z,16.14
2018-07-13T02:53:56.816Z,16.15
2018-07-13T02:55:32.406Z,16.14
2018-07-13T02:57:08.030Z,16.15
2018-07-13T02:58:43.694Z,16.12
2018-07-13T03:00:19.285Z,16.08
2018-07-13T03:01:54.877Z,16.05
2018-07-13T03:03:30.517Z,16.05
2018-07-13T03:05:06.235Z,16.10
2018-07-13T03:06:41.837Z,16.07
2018-07-13T03:08:17.854Z,16.08
2018-07-13T03:09:53.470Z,16.09
2018-07-13T03:11:29.289Z,16.10
2018-07-13T03:13:04.884Z,16.06
2018-07-13T03:14:40.515Z,16.06
2018-07-13T03:16:16.370Z,16.07
2018-07-13T03:17:51.973Z,16.07
2018-07-13T03:19:27.621Z,16.08
2018-07-13T03:21:03.257Z,16.07
2018-07-13T03:22:38.809Z,16.06
2018-07-13T03:24:14.829Z,16.06
2018-07-13T03:25:50.403Z,16.02
2018-07-13T03:27:26.090Z,16.03
2018-07-13T03:29:01.668Z,16.07
2018-07-13T03:30:37.340Z,16.13
2018-07-13T03:32:12.945Z,16.18
2018-07-13T03:33:48.634Z,16.17
2018-07-13T03:35:24.245Z,16.21
2018-07-13T03:37:00.254Z,16.22
2018-07-13T03:38:35.881Z,16.16
2018-07-13T03:40:11.470Z,16.21
2018-07-13T03:41:47.114Z,16.27
2018-07-13T03:43:22.728Z,16.27
2018-07-13T03:44:58.349Z,16.29
2018-07-13T03:46:33.978Z,16.38
2018-07-13T03:48:09.577Z,16.43
2018-07-13T03:49:45.175Z,16.46
2018-07-13T03:51:20.804Z,16.48
2018-07-13T03:52:56.397Z,16.53
2018-07-13T03:54:33.112Z,16.53
2018-07-13T03:56:08.992Z,16.56
2018-07-13T03:57:45.020Z,16.61
2018-07-13T03:59:21.287Z,16.62
2018-07-13T04:00:56.917Z,16.60
2018-07-13T04:02:32.536Z,16.65
2018-07-13T04:04:08.129Z,16.70
2018-07-13T04:05:43.718Z,16.79
2018-07-13T04:07:19.341Z,16.82
2018-07-13T04:08:56.104Z,16.85
2018-07-13T04:10:31.939Z,16.87
2018-07-13T04:12:07.704Z,16.96
2018-07-13T04:13:43.999Z,17.00
2018-07-13T04:15:19.614Z,17.01
2018-07-13T04:16:55.230Z,17.09
2018-07-13T04:18:30.841Z,17.19
2018-07-13T04:20:06.435Z,17.94
2018-07-13T04:21:42.093Z,20.09
2018-07-13T04:23:17.846Z,21.68
2018-07-13T04:24:53.452Z,22.38
2018-07-13T04:26:29.469Z,23.46
2018-07-13T04:28:05.094Z,24.23
2018-07-13T04:29:40.710Z,24.66
2018-07-13T04:31:16.463Z,25.10
2018-07-13T04:32:52.018Z,25.73
2018-07-13T04:34:27.617Z,26.04
2018-07-13T04:36:03.233Z,26.30
2018-07-13T04:37:38.814Z,26.52
2018-07-13T04:39:14.356Z,26.90
2018-07-13T04:40:49.979Z,27.03
2018-07-13T04:42:25.628Z,26.98
2018-07-13T04:44:01.213Z,27.10
2018-07-13T04:45:36.787Z,26.52
2018-07-13T04:47:12.468Z,26.65
2018-07-13T04:48:48.091Z,26.75
2018-07-13T04:50:23.723Z,26.96
2018-07-13T04:52:00.437Z,26.66
2018-07-13T04:53:36.296Z,26.52
2018-07-13T04:55:12.474Z,26.41
2018-07-13T04:56:50.468Z,26.56
2018-07-13T04:58:26.778Z,26.77
2018-07-13T05:00:02.701Z,26.16
2018-07-13T05:01:39.597Z,25.24
2018-07-13T05:03:15.189Z,24.34
2018-07-13T05:04:50.848Z,23.45
2018-07-13T05:06:27.772Z,22.65
2018-07-13T05:08:03.625Z,22.32
2018-07-13T05:09:39.259Z,21.83
2018-07-13T05:11:15.056Z,22.27
2018-07-13T05:12:50.724Z,22.29
2018-07-13T05:14:26.357Z,22.09
2018-07-13T05:16:01.953Z,22.10
2018-07-13T05:17:37.602Z,22.04
2018-07-13T05:19:13.180Z,21.80
2018-07-13T05:20:48.925Z,21.61
2018-07-13T05:22:24.506Z,21.65
2018-07-13T05:24:00.132Z,21.57
2018-07-13T05:25:35.803Z,21.63
2018-07-13T05:27:11.472Z,21.52
2018-07-13T05:28:47.112Z,21.45
2018-07-13T05:30:22.967Z,21.37
2018-07-13T05:31:58.567Z,21.32
2018-07-13T05:33:34.542Z,21.35
2018-07-13T05:35:10.571Z,21.28
2018-07-13T05:36:46.197Z,21.37
2018-07-13T05:38:21.943Z,21.45
2018-07-13T05:39:57.459Z,21.43
2018-07-13T05:41:33.176Z,21.23
2018-07-13T05:43:08.815Z,21.30
2018-07-13T05:44:44.613Z,21.44
2018-07-13T05:46:20.235Z,21.50
2018-07-13T05:47:55.978Z,21.56
2018-07-13T05:49:31.727Z,21.71
2018-07-13T05:51:07.530Z,21.88
2018-07-13T05:52:43.148Z,21.81
2018-07-13T05:54:19.857Z,21.94
2018-07-13T05:55:55.451Z,22.07
2018-07-13T05:57:31.045Z,22.38
2018-07-13T05:59:06.712Z,22.51
2018-07-13T06:00:42.401Z,22.53
2018-07-13T06:02:18.332Z,22.47
2018-07-13T06:03:53.932Z,22.52
2018-07-13T06:05:29.624Z,22.54
2018-07-13T06:07:05.440Z,22.60
2018-07-13T06:08:41.591Z,22.54
2018-07-13T06:10:17.677Z,22.45
2018-07-13T06:11:53.296Z,22.53
2018-07-13T06:13:28.883Z,22.48
2018-07-13T06:15:04.757Z,22.59
2018-07-13T06:16:40.312Z,22.65
2018-07-13T06:18:19.410Z,22.54
2018-07-13T06:19:55.193Z,22.59
2018-07-13T06:21:30.774Z,22.67
2018-07-13T06:23:07.023Z,22.88
2018-07-13T06:24:42.824Z,23.31
2018-07-13T06:26:18.409Z,23.39
2018-07-13T06:27:54.017Z,23.58
2018-07-13T06:29:29.586Z,23.74
2018-07-13T06:31:05.273Z,23.97
2018-07-13T06:32:40.849Z,23.92
2018-07-13T06:34:16.448Z,24.02
2018-07-13T06:35:52.034Z,23.98
2018-07-13T06:37:27.750Z,24.12
2018-07-13T06:39:04.876Z,24.01
2018-07-13T06:40:40.486Z,23.82
2018-07-13T06:42:16.385Z,23.89
2018-07-13T06:43:52.192Z,24.02
2018-07-13T06:45:28.096Z,24.19
2018-07-13T06:47:03.837Z,24.23
2018-07-13T06:48:40.563Z,24.29
2018-07-13T06:50:16.412Z,24.41
2018-07-13T06:51:52.160Z,24.57
2018-07-13T06:53:27.871Z,24.61
2018-07-13T06:55:03.523Z,24.69
2018-07-13T06:56:39.358Z,24.68
2018-07-13T06:58:26.116Z,24.77
2018-07-13T07:00:06.903Z,24.56
2018-07-13T07:01:42.899Z,24.64
2018-07-13T07:03:18.610Z,24.64
2018-07-13T07:05:04.994Z,24.75
2018-07-13T07:06:40.582Z,24.61
2018-07-13T07:08:16.206Z,24.43
2018-07-13T07:09:57.235Z,24.40
2018-07-13T07:11:33.059Z,24.28
2018-07-13T07:13:19.733Z,24.22
2018-07-13T07:14:55.541Z,24.22
2018-07-13T07:16:31.113Z,24.00
2018-07-13T07:18:07.607Z,23.81
2018-07-13T07:19:43.217Z,23.47
2018-07-13T07:21:18.793Z,23.43
2018-07-13T07:22:54.416Z,23.26
2018-07-13T07:24:30.033Z,23.25
2018-07-13T07:26:06.195Z,23.26
2018-07-13T07:27:42.174Z,23.25
2018-07-13T07:29:17.809Z,23.29
2018-07-13T07:30:53.923Z,23.30
2018-07-13T07:32:29.847Z,23.16
2018-07-13T07:34:05.481Z,23.14
2018-07-13T07:35:41.152Z,23.31
2018-07-13T07:37:16.805Z,23.25
2018-07-13T07:38:52.560Z,22.72
2018-07-13T07:40:28.464Z,22.82
2018-07-13T07:42:04.152Z,22.83
2018-07-13T07:43:39.960Z,22.90
2018-07-13T07:45:15.848Z,22.95
2018-07-13T07:46:52.168Z,22.95
2018-07-13T07:48:27.873Z,23.16
2018-07-13T07:50:03.548Z,23.20
2018-07-13T07:51:39.125Z,23.16
2018-07-13T07:53:14.681Z,23.12
2018-07-13T07:54:50.456Z,23.07
2018-07-13T07:56:26.382Z,23.20
2018-07-13T07:58:01.945Z,23.33
2018-07-13T07:59:37.560Z,23.37
2018-07-13T08:01:13.442Z,23.41
2018-07-13T08:02:49.154Z,23.46
2018-07-13T08:04:24.745Z,23.53
2018-07-13T08:06:00.316Z,23.41
2018-07-13T08:07:36.256Z,23.49
2018-07-13T08:09:11.821Z,23.62
2018-07-13T08:10:47.878Z,23.65
2018-07-13T08:12:23.726Z,23.65
2018-07-13T08:13:59.596Z,23.82
2018-07-13T08:15:35.275Z,23.79
2018-07-13T08:17:11.062Z,23.83
2018-07-13T08:18:46.642Z,23.94
2018-07-13T08:20:26.652Z,23.96
2018-07-13T08:22:08.985Z,23.92
2018-07-13T08:23:44.822Z,23.82
2018-07-13T08:25:20.962Z,23.80
2018-07-13T08:26:59.975Z,23.84
2018-07-13T08:28:35.630Z,23.99
2018-07-13T08:30:15.689Z,24.07
2018-07-13T08:31:51.269Z,23.83
2018-07-13T08:33:26.882Z,23.84
2018-07-13T08:35:02.506Z,23.85
2018-07-13T08:36:38.091Z,23.95
2018-07-13T08:38:13.690Z,24.02
2018-07-13T08:39:49.300Z,24.05
2018-07-13T08:41:24.895Z,24.16
2018-07-13T08:43:00.457Z,24.15
2018-07-13T08:44:36.061Z,24.20
2018-07-13T08:46:11.872Z,24.23
2018-07-13T08:47:47.784Z,24.28
2018-07-13T08:49:23.596Z,24.35
2018-07-13T08:50:59.197Z,24.39
2018-07-13T08:52:34.777Z,24.37
2018-07-13T08:54:10.538Z,24.40
2018-07-13T08:55:46.140Z,24.18
2018-07-13T08:57:21.746Z,24.12
2018-07-13T08:58:57.324Z,24.14
2018-07-13T09:00:32.940Z,24.22
2018-07-13T09:02:08.500Z,24.44
2018-07-13T09:03:44.136Z,24.60
2018-07-13T09:05:19.771Z,24.64
2018-07-13T09:06:55.388Z,24.54
2018-07-13T09:08:30.984Z,24.55
2018-07-13T09:10:09.202Z,24.57
2018-07-13T09:11:45.516Z,24.39
2018-07-13T09:13:21.768Z,24.26
2018-07-13T09:14:58.381Z,24.31
2018-07-13T09:16:35.252Z,24.43
2018-07-13T09:18:11.694Z,24.46
2018-07-13T09:19:48.122Z,24.52
2018-07-13T09:21:24.573Z,24.42
2018-07-13T09:23:02.168Z,24.30
2018-07-13T09:24:38.614Z,24.40
2018-07-13T09:26:14.330Z,24.31
2018-07-13T09:27:50.777Z,24.35
2018-07-13T09:29:26.366Z,24.44
2018-07-13T09:31:01.933Z,24.42
2018-07-13T09:32:37.722Z,24.46
2018-07-13T09:34:13.358Z,24.34
2018-07-13T09:35:49.233Z,24.42
2018-07-13T09:37:24.800Z,24.52
2018-07-13T09:39:00.661Z,24.70
2018-07-13T09:40:36.339Z,24.68
2018-07-13T09:42:53.033Z,24.64
2018-07-13T09:44:39.212Z,24.66
2018-07-13T09:46:19.045Z,24.71
2018-07-13T09:47:57.668Z,24.67
2018-07-13T09:49:39.353Z,24.63
2018-07-13T09:51:18.725Z,24.54
2018-07-13T09:52:58.387Z,24.51
2018-07-13T09:54:40.060Z,24.54
2018-07-13T09:56:20.806Z,24.73
2018-07-13T09:58:02.547Z,24.82
2018-07-13T09:59:42.793Z,24.82
2018-07-13T10:01:25.046Z,24.97
2018-07-13T10:03:04.119Z,25.02
2018-07-13T10:04:43.837Z,25.03
2018-07-13T10:06:24.623Z,25.08
2018-07-13T10:08:05.390Z,25.14
2018-07-13T10:09:45.539Z,25.10
2018-07-13T10:11:21.405Z,25.14
2018-07-13T10:12:59.571Z,25.12
2018-07-13T10:14:40.836Z,25.24
2018-07-13T10:16:20.578Z,25.40
2018-07-13T10:18:00.756Z,25.52
2018-07-13T10:19:40.037Z,25.55
2018-07-13T10:21:16.084Z,25.83
2018-07-13T10:22:51.903Z,25.56
2018-07-13T10:24:28.131Z,25.54
2018-07-13T10:26:08.677Z,25.58
2018-07-13T10:27:44.941Z,25.56
2018-07-13T10:29:27.167Z,25.84
2018-07-13T10:31:02.836Z,25.77
2018-07-13T10:32:43.129Z,25.90
2018-07-13T10:34:19.748Z,25.95
2018-07-13T10:35:58.156Z,25.84
2018-07-13T10:37:41.775Z,25.81
2018-07-13T10:39:17.412Z,25.81
2018-07-13T10:41:05.248Z,25.94
2018-07-13T10:42:52.806Z,26.11
2018-07-13T10:45:00.272Z,26.26
2018-07-13T10:46:50.073Z,26.28
2018-07-13T10:48:44.041Z,26.26
2018-07-13T10:50:38.360Z,26.45
2018-07-13T10:52:26.272Z,26.54
2018-07-13T10:54:16.015Z,26.61
2018-07-13T10:56:03.804Z,26.77
2018-07-13T10:57:48.038Z,26.78
2018-07-13T10:59:31.835Z,26.85
2018-07-13T11:01:08.245Z,27.08
2018-07-13T11:02:47.655Z,27.18
2018-07-13T11:04:25.846Z,27.18
2018-07-13T11:06:05.534Z,27.16
2018-07-13T11:07:46.448Z,27.13
2018-07-13T11:09:37.624Z,27.22
2018-07-13T11:11:19.117Z,27.14
2018-07-13T11:12:59.963Z,27.14
2018-07-13T11:14:38.180Z,27.11
2018-07-13T11:16:22.227Z,27.11
2018-07-13T11:18:00.094Z,27.21
2018-07-13T11:19:42.181Z,27.14
2018-07-13T11:21:25.151Z,27.35
2018-07-13T11:23:06.512Z,27.62
2018-07-13T11:24:48.900Z,27.74
2018-07-13T11:26:31.296Z,27.58
2018-07-13T11:28:12.882Z,27.53
2018-07-13T11:29:49.066Z,27.55
2018-07-13T11:31:27.196Z,27.47
2018-07-13T11:33:03.187Z,27.50
2018-07-13T11:34:41.467Z,27.35
2018-07-13T11:36:17.467Z,27.26
2018-07-13T11:37:53.382Z,27.20
2018-07-13T11:39:33.899Z,27.30
2018-07-13T11:41:13.028Z,27.21
2018-07-13T11:42:49.170Z,27.38
2018-07-13T11:44:38.561Z,27.42
2018-07-13T11:46:15.782Z,27.40
2018-07-13T11:47:52.318Z,27.21
2018-07-13T11:49:29.859Z,27.06
2018-07-13T11:51:10.685Z,27.26
2018-07-13T11:52:55.441Z,27.30
2018-07-13T11:54:40.350Z,27.19
2018-07-13T11:56:18.707Z,27.47
2018-07-13T11:57:54.642Z,27.61
2018-07-13T11:59:30.246Z,27.80
2018-07-13T12:01:06.563Z,27.71
2018-07-13T12:02:42.502Z,27.78
2018-07-13T12:04:22.272Z,27.89
2018-07-13T12:05:59.352Z,27.87
2018-07-13T12:07:40.555Z,27.98
2018-07-13T12:09:17.321Z,28.03
2018-07-13T12:10:54.727Z,27.89
2018-07-13T12:12:31.227Z,28.01
2018-07-13T12:14:06.844Z,28.09
2018-07-13T12:15:43.936Z,28.11
2018-07-13T12:17:19.539Z,28.14
2018-07-13T12:18:55.109Z,28.13
2018-07-13T12:20:39.802Z,28.00
2018-07-13T12:22:16.706Z,27.80
2018-07-13T12:23:58.174Z,27.75
2018-07-13T12:25:39.701Z,27.65
2018-07-13T12:27:27.520Z,27.65
2018-07-13T12:29:14.643Z,27.72
2018-07-13T12:31:01.737Z,27.62
2018-07-13T12:32:44.941Z,27.59
2018-07-13T12:34:29.106Z,27.69
2018-07-13T12:36:12.757Z,27.90
2018-07-13T12:37:57.141Z,27.95
2018-07-13T12:39:41.862Z,27.85
2018-07-13T12:41:27.201Z,27.93
2018-07-13T12:43:12.469Z,27.82
2018-07-13T12:44:58.024Z,27.85
2018-07-13T12:46:39.606Z,27.72
2018-07-13T12:48:19.771Z,27.82
2018-07-13T12:49:56.759Z,27.84
2018-07-13T12:51:33.829Z,27.83
2018-07-13T12:53:09.788Z,27.68
2018-07-13T12:54:46.199Z,27.56
2018-07-13T12:56:22.795Z,27.64
2018-07-13T12:57:59.526Z,27.47
2018-07-13T12:59:36.112Z,27.43
2018-07-13T13:01:12.469Z,27.48
2018-07-13T13:02:48.795Z,27.49
2018-07-13T13:04:25.303Z,27.42
2018-07-13T13:06:01.122Z,27.32
2018-07-13T13:07:37.799Z,27.30
2018-07-13T13:09:14.257Z,27.30
2018-07-13T13:10:50.960Z,27.41
2018-07-13T13:12:27.725Z,27.54
2018-07-13T13:14:03.526Z,27.57
2018-07-13T13:15:40.923Z,27.84
2018-07-13T13:17:17.105Z,27.89
2018-07-13T13:18:52.714Z,28.06
2018-07-13T13:20:28.699Z,28.04
2018-07-13T13:22:04.531Z,28.07
2018-07-13T13:23:44.042Z,28.22
2018-07-13T13:25:19.834Z,28.40
2018-07-13T13:26:55.420Z,28.61
2018-07-13T13:28:31.188Z,28.54
2018-07-13T13:30:06.777Z,28.50
2018-07-13T13:31:42.380Z,28.39
2018-07-13T13:33:17.960Z,28.32
2018-07-13T13:34:53.780Z,28.29
2018-07-13T13:36:29.393Z,28.26
2018-07-13T13:38:04.988Z,28.32
2018-07-13T13:39:40.918Z,28.33
2018-07-13T13:41:16.569Z,28.69
2018-07-13T13:42:52.289Z,28.67
2018-07-13T13:44:30.017Z,28.89
2018-07-13T13:46:13.647Z,29.12
2018-07-13T13:47:49.249Z,29.03
2018-07-13T13:49:24.950Z,29.14
2018-07-13T13:51:00.693Z,29.34
2018-07-13T13:52:36.317Z,29.25
2018-07-13T13:54:11.933Z,29.42
2018-07-13T13:55:48.326Z,29.51
2018-07-13T13:57:23.894Z,29.50
2018-07-13T13:58:59.480Z,29.31
2018-07-13T14:00:35.205Z,29.27
2018-07-13T14:02:10.786Z,29.32
2018-07-13T14:03:46.387Z,29.49
2018-07-13T14:05:22.002Z,29.55
2018-07-13T14:06:57.639Z,29.69
2018-07-13T14:08:33.267Z,29.76
2018-07-13T14:10:08.897Z,29.73
2018-07-13T14:11:44.487Z,29.74
2018-07-13T14:13:20.336Z,29.69
2018-07-13T14:14:55.961Z,29.59
2018-07-13T14:16:31.544Z,29.56
2018-07-13T14:18:07.150Z,29.54
2018-07-13T14:19:42.712Z,29.75
2018-07-13T14:21:18.418Z,29.81
2018-07-13T14:22:54.015Z,29.90
2018-07-13T14:24:29.632Z,29.97
2018-07-13T14:26:05.398Z,30.12
2018-07-13T14:27:40.990Z,30.30
2018-07-13T14:29:16.910Z,29.90
2018-07-13T14:30:52.545Z,29.82
2018-07-13T14:32:28.123Z,30.00
2018-07-13T14:34:03.686Z,29.92
2018-07-13T14:35:39.349Z,29.66
2018-07-13T14:37:14.942Z,29.67
2018-07-13T14:38:50.523Z,29.61
2018-07-13T14:40:26.083Z,29.56
2018-07-13T14:42:01.706Z,29.81
2018-07-13T14:43:37.744Z,30.07
2018-07-13T14:45:13.328Z,30.06
2018-07-13T14:46:49.075Z,29.93
2018-07-13T14:48:24.617Z,29.76
2018-07-13T14:50:00.215Z,29.79
2018-07-13T14:51:35.795Z,29.93
2018-07-13T14:53:11.366Z,29.96
2018-07-13T14:54:46.961Z,30.06
2018-07-13T14:56:22.573Z,30.00
2018-07-13T14:57:58.286Z,29.72
2018-07-13T14:59:33.902Z,29.84
2018-07-13T15:01:09.460Z,29.80
2018-07-13T15:02:45.358Z,29.65
2018-07-13T15:04:21.001Z,29.80
2018-07-13T15:05:56.713Z,29.72
2018-07-13T15:07:32.185Z,29.56
2018-07-13T15:09:08.034Z,29.38
2018-07-13T15:10:43.935Z,29.51
2018-07-13T15:12:19.497Z,29.63
2018-07-13T15:13:55.335Z,29.64
2018-07-13T15:15:30.930Z,29.62
2018-07-13T15:17:06.499Z,29.39
2018-07-13T15:18:42.209Z,29.48
2018-07-13T15:20:17.825Z,29.40
2018-07-13T15:21:53.518Z,29.52
2018-07-13T15:23:29.103Z,29.27
2018-07-13T15:25:04.680Z,29.14
2018-07-13T15:26:40.506Z,28.99
2018-07-13T15:28:16.070Z,28.85
2018-07-13T15:29:51.677Z,28.81
2018-07-13T15:31:27.239Z,28.64
2018-07-13T15:33:03.159Z,28.56
2018-07-13T15:34:38.716Z,28.37
2018-07-13T15:36:14.327Z,28.27
2018-07-13T15:37:49.932Z,28.28
2018-07-13T15:39:25.468Z,28.15
2018-07-13T15:41:01.070Z,28.19
2018-07-13T15:42:36.627Z,28.01
2018-07-13T15:44:12.199Z,27.98
2018-07-13T15:45:47.764Z,27.90
2018-07-13T15:47:23.537Z,27.90
2018-07-13T15:48:59.143Z,27.95
2018-07-13T15:50:34.764Z,27.96
2018-07-13T15:52:10.400Z,27.84
2018-07-13T15:53:45.998Z,27.69
2018-07-13T15:55:21.580Z,27.72
2018-07-13T15:56:57.126Z,27.71
2018-07-13T15:58:32.731Z,27.75
2018-07-13T16:00:08.291Z,27.74
2018-07-13T16:01:43.892Z,27.58
2018-07-13T16:03:19.472Z,27.55
2018-07-13T16:04:55.122Z,27.71
2018-07-13T16:06:30.751Z,27.93
2018-07-13T16:08:06.341Z,27.98
2018-07-13T16:09:41.981Z,27.75
2018-07-13T16:11:17.532Z,27.58
2018-07-13T16:12:53.238Z,27.51
2018-07-13T16:14:29.510Z,27.80
2018-07-13T16:16:05.360Z,28.08
2018-07-13T16:17:40.919Z,28.16
2018-07-13T16:19:16.780Z,28.32
2018-07-13T16:20:52.569Z,28.36
2018-07-13T16:22:28.221Z,28.39
2018-07-13T16:24:03.786Z,28.51
2018-07-13T16:25:39.659Z,28.34
2018-07-13T16:27:15.311Z,28.39
2018-07-13T16:28:50.967Z,28.53
2018-07-13T16:30:26.595Z,28.47
2018-07-13T16:32:02.152Z,28.54
2018-07-13T16:33:40.998Z,28.52
2018-07-13T16:35:17.282Z,28.63
2018-07-13T16:36:53.499Z,28.78
2018-07-13T16:38:29.915Z,28.87
2018-07-13T16:40:06.055Z,28.84
2018-07-13T16:41:41.841Z,28.61
2018-07-13T16:43:17.908Z,28.55
2018-07-13T16:44:54.555Z,28.35
2018-07-13T16:46:30.211Z,28.37
2018-07-13T16:48:05.869Z,28.45
2018-07-13T16:49:41.477Z,28.64
2018-07-13T16:51:19.309Z,28.55
2018-07-13T16:52:56.216Z,28.29
2018-07-13T16:54:31.817Z,28.37
2018-07-13T16:56:07.654Z,28.57
2018-07-13T16:57:43.335Z,28.39
2018-07-13T16:59:18.953Z,28.45
2018-07-13T17:00:54.737Z,28.23
2018-07-13T17:02:30.362Z,27.97
2018-07-13T17:04:05.957Z,27.73
2018-07-13T17:05:41.567Z,27.54
2018-07-13T17:07:17.134Z,27.43
2018-07-13T17:08:52.761Z,27.39
2018-07-13T17:10:28.345Z,27.38
2018-07-13T17:12:03.954Z,27.31
2018-07-13T17:13:39.575Z,27.18
2018-07-13T17:15:15.237Z,27.03
2018-07-13T17:16:50.835Z,27.00
2018-07-13T17:18:26.404Z,27.00
2018-07-13T17:20:01.980Z,26.96
2018-07-13T17:21:37.563Z,26.92
2018-07-13T17:23:13.353Z,26.87
2018-07-13T17:24:48.974Z,26.78
2018-07-13T17:26:24.554Z,26.78
2018-07-13T17:28:00.144Z,26.66
2018-07-13T17:29:35.717Z,26.57
2018-07-13T17:31:11.332Z,26.58
2018-07-13T17:32:46.893Z,26.58
2018-07-13T17:34:22.484Z,26.46
2018-07-13T17:35:58.146Z,26.37
2018-07-13T17:37:33.729Z,26.44
2018-07-13T17:39:09.445Z,26.47
2018-07-13T17:40:45.417Z,26.52
2018-07-13T17:42:21.105Z,26.33
2018-07-13T17:43:56.865Z,26.33
2018-07-13T17:45:32.446Z,26.29
2018-07-13T17:47:08.312Z,26.33
2018-07-13T17:48:43.916Z,26.28
2018-07-13T17:50:19.633Z,26.22
2018-07-13T17:51:55.418Z,26.21
2018-07-13T17:53:30.977Z,26.25
2018-07-13T17:55:06.567Z,26.29
2018-07-13T17:56:42.148Z,26.29
2018-07-13T17:58:18.078Z,26.32
2018-07-13T17:59:53.662Z,26.23
2018-07-13T18:01:29.448Z,26.15
2018-07-13T18:03:05.131Z,26.16
2018-07-13T18:04:40.699Z,26.12
2018-07-13T18:06:16.287Z,26.10
2018-07-13T18:07:52.298Z,26.03
2018-07-13T18:09:28.213Z,26.07
2018-07-13T18:11:04.122Z,25.95
2018-07-13T18:12:39.822Z,25.97
2018-07-13T18:14:15.445Z,25.92
2018-07-13T18:15:51.133Z,25.87
2018-07-13T18:17:26.693Z,25.81
2018-07-13T18:19:02.688Z,25.80
2018-07-13T18:20:38.366Z,25.77
2018-07-13T18:22:13.965Z,25.70
2018-07-13T18:23:49.525Z,25.64
2018-07-13T18:25:25.106Z,25.58
2018-07-13T18:27:00.717Z,25.55
2018-07-13T18:28:36.296Z,25.50
2018-07-13T18:30:11.892Z,25.48
2018-07-13T18:31:47.646Z,25.45
2018-07-13T18:33:23.281Z,25.30
2018-07-13T18:34:58.893Z,25.21
2018-07-13T18:36:34.654Z,25.07
2018-07-13T18:38:10.241Z,25.04
2018-07-13T18:39:45.813Z,25.01
2018-07-13T18:41:21.577Z,24.97
2018-07-13T18:42:57.912Z,24.94
2018-07-13T18:44:33.816Z,24.89
2018-07-13T18:46:09.715Z,24.81
2018-07-13T18:47:45.449Z,24.81
2018-07-13T18:49:21.028Z,24.72
2018-07-13T18:50:56.713Z,24.64
2018-07-13T18:52:32.293Z,24.58
2018-07-13T18:54:07.950Z,24.56
2018-07-13T18:55:43.520Z,24.54
2018-07-13T18:57:19.141Z,24.43
2018-07-13T18:58:54.731Z,24.31
2018-07-13T19:00:30.288Z,24.29
2018-07-13T19:02:06.029Z,24.29
2018-07-13T19:03:41.752Z,24.23
2018-07-13T19:05:17.384Z,24.17
2018-07-13T19:06:54.962Z,24.17
2018-07-13T19:08:32.879Z,24.06
2018-07-13T19:10:13.217Z,24.01
2018-07-13T19:11:49.488Z,24.04
2018-07-13T19:13:26.305Z,24.06
2018-07-13T19:15:03.759Z,24.02
2018-07-13T19:16:42.634Z,23.84
2018-07-13T19:18:21.349Z,23.83
2018-07-13T19:19:58.400Z,23.71
2018-07-13T19:21:35.151Z,23.64
2018-07-13T19:23:12.310Z,23.61
2018-07-13T19:24:48.817Z,23.65
2018-07-13T19:26:25.505Z,23.52
2018-07-13T19:28:02.540Z,23.52
2018-07-13T19:29:39.521Z,23.55
2018-07-13T19:31:16.841Z,23.45
2018-07-13T19:32:53.865Z,23.48
2018-07-13T19:34:30.988Z,23.50
2018-07-13T19:36:08.827Z,23.41
2018-07-13T19:37:45.816Z,23.25
2018-07-13T19:39:22.132Z,23.23
2018-07-13T19:40:58.150Z,23.15
2018-07-13T19:42:34.141Z,23.15
2018-07-13T19:44:11.171Z,23.18
2018-07-13T19:45:48.820Z,23.17
2018-07-13T19:47:25.514Z,23.10
2018-07-13T19:49:01.389Z,23.05
2018-07-13T19:50:40.103Z,23.07
2018-07-13T19:52:18.818Z,23.00
2018-07-13T19:53:57.051Z,22.98
2018-07-13T19:55:34.308Z,22.96
2018-07-13T19:57:10.238Z,22.80
2018-07-13T19:58:49.511Z,22.81
2018-07-13T20:00:28.810Z,22.77
2018-07-13T20:02:08.138Z,22.80
2018-07-13T20:03:47.172Z,22.82
2018-07-13T20:05:24.779Z,22.73
2018-07-13T20:07:00.879Z,22.72
2018-07-13T20:08:36.999Z,22.65
2018-07-13T20:10:13.913Z,22.60
2018-07-13T20:11:50.056Z,22.52
2018-07-13T20:13:25.841Z,22.49
2018-07-13T20:15:02.730Z,22.45
2018-07-13T20:16:40.665Z,22.44
2018-07-13T20:18:19.644Z,22.46
2018-07-13T20:19:55.811Z,22.39
2018-07-13T20:21:31.641Z,22.37
2018-07-13T20:23:07.505Z,22.32
2018-07-13T20:24:43.120Z,22.27
2018-07-13T20:26:18.772Z,22.22
2018-07-13T20:27:54.372Z,22.18
2018-07-13T20:29:29.967Z,22.18
2018-07-13T20:31:05.896Z,22.15
2018-07-13T20:32:41.493Z,22.15
2018-07-13T20:34:17.075Z,22.12
2018-07-13T20:35:52.670Z,22.12
2018-07-13T20:37:28.324Z,22.12
2018-07-13T20:39:04.172Z,22.06
2018-07-13T20:40:39.779Z,21.98
2018-07-13T20:42:15.345Z,21.95
2018-07-13T20:43:51.317Z,21.89
2018-07-13T20:45:26.922Z,21.83
2018-07-13T20:47:02.826Z,21.74